sensor_id;sensor_type;location;lat;lon;timestamp;temperature;humidity
16417;DHT22;8317;52.186;5.688;2022-11-15T00:00:44;7.40;99.90
16417;DHT22;8317;52.186;5.688;2022-11-15T00:03:13;7.50;99.90
16417;DHT22;8317;52.186;5.688;2022-11-15T00:05:40;7.50;99.90
16417;DHT22;8317;52.186;5.688;2022-11-15T00:08:07;7.40;99.90
16417;DHT22;8317;52.186;5.688;2022-11-15T00:10:34;7.40;99.90
16417;DHT22;8317;52.186;5.688;2022-11-15T00:13:04;7.40;99.90
16417;DHT22;8317;52.186;5.688;2022-11-15T00:15:31;7.40;99.90
16417;DHT22;8317;52.186;5.688;2022-11-15T00:18:02;7.40;99.90
16417;DHT22;8317;52.186;5.688;2022-11-15T00:20:29;7.40;99.90
16417;DHT22;8317;52.186;5.688;2022-11-15T00:22:56;7.50;99.90
16417;DHT22;8317;52.186;5.688;2022-11-15T00:25:22;7.60;99.90
16417;DHT22;8317;52.186;5.688;2022-11-15T00:27:49;7.50;99.90
16417;DHT22;8317;52.186;5.688;2022-11-15T00:30:17;7.70;99.90
16417;DHT22;8317;52.186;5.688;2022-11-15T00:32:44;7.60;99.90
16417;DHT22;8317;52.186;5.688;2022-11-15T00:35:12;7.60;99.90
16417;DHT22;8317;52.186;5.688;2022-11-15T00:37:39;7.60;99.90
16417;DHT22;8317;52.186;5.688;2022-11-15T00:40:07;7.50;99.90
16417;DHT22;8317;52.186;5.688;2022-11-15T00:42:34;7.50;99.90
16417;DHT22;8317;52.186;5.688;2022-11-15T00:45:01;7.50;99.90
16417;DHT22;8317;52.186;5.688;2022-11-15T00:47:28;7.50;99.90
16417;DHT22;8317;52.186;5.688;2022-11-15T00:49:55;7.50;99.90
16417;DHT22;8317;52.186;5.688;2022-11-15T00:52:23;7.60;99.90
16417;DHT22;8317;52.186;5.688;2022-11-15T00:54:50;7.70;99.90
16417;DHT22;8317;52.186;5.688;2022-11-15T00:57:16;7.70;99.90
16417;DHT22;8317;52.186;5.688;2022-11-15T00:59:43;7.80;99.90
16417;DHT22;8317;52.186;5.688;2022-11-15T01:02:10;7.80;99.90
16417;DHT22;8317;52.186;5.688;2022-11-15T01:04:37;7.90;99.90
16417;DHT22;8317;52.186;5.688;2022-11-15T01:07:04;7.90;99.90
16417;DHT22;8317;52.186;5.688;2022-11-15T01:09:32;7.80;99.90
16417;DHT22;8317;52.186;5.688;2022-11-15T01:11:59;7.90;99.90
16417;DHT22;8317;52.186;5.688;2022-11-15T01:14:26;7.90;99.90
16417;DHT22;8317;52.186;5.688;2022-11-15T01:16:53;7.90;99.90
16417;DHT22;8317;52.186;5.688;2022-11-15T01:19:20;8.00;99.90
16417;DHT22;8317;52.186;5.688;2022-11-15T01:21:48;8.00;99.90
16417;DHT22;8317;52.186;5.688;2022-11-15T01:24:15;8.00;99.90
16417;DHT22;8317;52.186;5.688;2022-11-15T01:26:44;7.90;99.90
16417;DHT22;8317;52.186;5.688;2022-11-15T01:29:11;8.00;99.90
16417;DHT22;8317;52.186;5.688;2022-11-15T01:31:37;8.00;99.90
16417;DHT22;8317;52.186;5.688;2022-11-15T01:34:04;8.00;99.90
16417;DHT22;8317;52.186;5.688;2022-11-15T01:36:31;8.10;99.90
16417;DHT22;8317;52.186;5.688;2022-11-15T01:38:58;8.00;99.90
16417;DHT22;8317;52.186;5.688;2022-11-15T01:41:28;8.10;99.90
16417;DHT22;8317;52.186;5.688;2022-11-15T01:44:28;8.10;99.90
16417;DHT22;8317;52.186;5.688;2022-11-15T01:46:47;8.10;99.90
16417;DHT22;8317;52.186;5.688;2022-11-15T01:49:17;8.10;99.90
16417;DHT22;8317;52.186;5.688;2022-11-15T01:51:44;8.00;99.90
16417;DHT22;8317;52.186;5.688;2022-11-15T01:54:29;8.10;99.90
16417;DHT22;8317;52.186;5.688;2022-11-15T01:56:58;8.10;99.90
16417;DHT22;8317;52.186;5.688;2022-11-15T01:59:26;8.20;99.90
16417;DHT22;8317;52.186;5.688;2022-11-15T02:01:53;8.10;99.90
16417;DHT22;8317;52.186;5.688;2022-11-15T02:04:24;8.20;99.90
16417;DHT22;8317;52.186;5.688;2022-11-15T02:06:51;8.10;99.90
16417;DHT22;8317;52.186;5.688;2022-11-15T02:09:18;8.20;99.90
16417;DHT22;8317;52.186;5.688;2022-11-15T02:11:47;8.30;99.90
16417;DHT22;8317;52.186;5.688;2022-11-15T02:14:17;8.30;99.90
16417;DHT22;8317;52.186;5.688;2022-11-15T02:16:50;8.20;99.90
16417;DHT22;8317;52.186;5.688;2022-11-15T02:22:27;8.40;99.90
16417;DHT22;8317;52.186;5.688;2022-11-15T02:25:05;8.40;99.90
16417;DHT22;8317;52.186;5.688;2022-11-15T02:28:15;8.50;99.90
16417;DHT22;8317;52.186;5.688;2022-11-15T02:30:46;8.50;99.90
16417;DHT22;8317;52.186;5.688;2022-11-15T02:33:21;8.50;99.90
16417;DHT22;8317;52.186;5.688;2022-11-15T02:35:57;8.50;99.90
16417;DHT22;8317;52.186;5.688;2022-11-15T02:38:36;8.60;99.90
16417;DHT22;8317;52.186;5.688;2022-11-15T02:41:09;8.60;99.90
16417;DHT22;8317;52.186;5.688;2022-11-15T02:43:40;8.70;99.90
16417;DHT22;8317;52.186;5.688;2022-11-15T02:46:27;8.70;99.90
16417;DHT22;8317;52.186;5.688;2022-11-15T02:49:10;8.80;99.90
16417;DHT22;8317;52.186;5.688;2022-11-15T02:51:38;8.80;99.90
16417;DHT22;8317;52.186;5.688;2022-11-15T02:54:06;8.90;99.90
16417;DHT22;8317;52.186;5.688;2022-11-15T02:56:33;8.90;99.90
16417;DHT22;8317;52.186;5.688;2022-11-15T02:59:13;8.90;99.90
16417;DHT22;8317;52.186;5.688;2022-11-15T03:01:52;8.90;99.90
16417;DHT22;8317;52.186;5.688;2022-11-15T03:04:29;9.00;99.90
16417;DHT22;8317;52.186;5.688;2022-11-15T03:07:07;9.10;99.90
16417;DHT22;8317;52.186;5.688;2022-11-15T03:09:39;9.10;99.90
16417;DHT22;8317;52.186;5.688;2022-11-15T03:12:12;9.10;99.90
16417;DHT22;8317;52.186;5.688;2022-11-15T03:14:51;9.10;99.90
16417;DHT22;8317;52.186;5.688;2022-11-15T03:17:25;9.10;99.90
16417;DHT22;8317;52.186;5.688;2022-11-15T03:19:55;9.10;99.90
16417;DHT22;8317;52.186;5.688;2022-11-15T03:22:24;9.10;99.90
16417;DHT22;8317;52.186;5.688;2022-11-15T03:24:54;9.20;99.90
16417;DHT22;8317;52.186;5.688;2022-11-15T03:27:25;9.10;99.90
16417;DHT22;8317;52.186;5.688;2022-11-15T03:29:57;9.20;99.90
16417;DHT22;8317;52.186;5.688;2022-11-15T03:32:30;9.20;99.90
16417;DHT22;8317;52.186;5.688;2022-11-15T03:34:58;9.20;99.90
16417;DHT22;8317;52.186;5.688;2022-11-15T03:37:30;9.30;99.90
16417;DHT22;8317;52.186;5.688;2022-11-15T03:39:59;9.40;99.90
16417;DHT22;8317;52.186;5.688;2022-11-15T03:42:29;9.50;99.90
16417;DHT22;8317;52.186;5.688;2022-11-15T03:45:01;9.60;99.90
16417;DHT22;8317;52.186;5.688;2022-11-15T03:47:34;9.60;99.90
16417;DHT22;8317;52.186;5.688;2022-11-15T03:50:04;9.60;99.90
16417;DHT22;8317;52.186;5.688;2022-11-15T03:52:34;9.80;99.90
16417;DHT22;8317;52.186;5.688;2022-11-15T03:55:03;9.80;99.90
16417;DHT22;8317;52.186;5.688;2022-11-15T03:57:30;9.80;99.90
16417;DHT22;8317;52.186;5.688;2022-11-15T03:59:57;9.80;99.90
16417;DHT22;8317;52.186;5.688;2022-11-15T04:02:24;9.90;99.90
16417;DHT22;8317;52.186;5.688;2022-11-15T04:04:52;9.80;99.90
16417;DHT22;8317;52.186;5.688;2022-11-15T04:07:19;9.90;99.90
16417;DHT22;8317;52.186;5.688;2022-11-15T04:09:46;10.00;99.90
16417;DHT22;8317;52.186;5.688;2022-11-15T04:12:28;10.00;99.90
16417;DHT22;8317;52.186;5.688;2022-11-15T04:14:59;10.00;99.90
16417;DHT22;8317;52.186;5.688;2022-11-15T04:17:37;10.10;99.90
16417;DHT22;8317;52.186;5.688;2022-11-15T04:20:09;10.20;99.90
16417;DHT22;8317;52.186;5.688;2022-11-15T04:22:54;10.30;99.90
16417;DHT22;8317;52.186;5.688;2022-11-15T04:25:40;10.30;99.90
16417;DHT22;8317;52.186;5.688;2022-11-15T04:28:07;10.30;99.90
16417;DHT22;8317;52.186;5.688;2022-11-15T04:30:34;10.40;99.90
16417;DHT22;8317;52.186;5.688;2022-11-15T04:33:01;10.30;99.90
16417;DHT22;8317;52.186;5.688;2022-11-15T04:35:30;10.40;99.90
16417;DHT22;8317;52.186;5.688;2022-11-15T04:37:57;10.40;99.90
16417;DHT22;8317;52.186;5.688;2022-11-15T04:40:23;10.50;99.90
16417;DHT22;8317;52.186;5.688;2022-11-15T04:42:50;10.40;99.90
16417;DHT22;8317;52.186;5.688;2022-11-15T04:45:17;10.50;99.90
16417;DHT22;8317;52.186;5.688;2022-11-15T04:47:44;10.50;99.90
16417;DHT22;8317;52.186;5.688;2022-11-15T04:50:12;10.60;99.90
16417;DHT22;8317;52.186;5.688;2022-11-15T04:52:41;10.60;99.90
16417;DHT22;8317;52.186;5.688;2022-11-15T04:55:09;10.50;99.90
16417;DHT22;8317;52.186;5.688;2022-11-15T04:57:36;10.60;99.90
16417;DHT22;8317;52.186;5.688;2022-11-15T05:00:04;10.70;99.90
16417;DHT22;8317;52.186;5.688;2022-11-15T05:02:31;10.70;99.90
16417;DHT22;8317;52.186;5.688;2022-11-15T05:05:12;10.60;99.90
16417;DHT22;8317;52.186;5.688;2022-11-15T05:07:40;10.70;99.90
16417;DHT22;8317;52.186;5.688;2022-11-15T05:10:08;10.70;99.90
16417;DHT22;8317;52.186;5.688;2022-11-15T05:12:35;10.60;99.90
16417;DHT22;8317;52.186;5.688;2022-11-15T05:15:02;10.70;99.90
16417;DHT22;8317;52.186;5.688;2022-11-15T05:17:29;10.70;99.90
16417;DHT22;8317;52.186;5.688;2022-11-15T05:19:56;10.70;99.90
16417;DHT22;8317;52.186;5.688;2022-11-15T05:22:23;10.70;99.90
16417;DHT22;8317;52.186;5.688;2022-11-15T05:24:51;10.80;99.90
16417;DHT22;8317;52.186;5.688;2022-11-15T05:27:19;10.80;99.90
16417;DHT22;8317;52.186;5.688;2022-11-15T05:29:45;10.70;99.90
16417;DHT22;8317;52.186;5.688;2022-11-15T05:32:13;10.80;99.90
16417;DHT22;8317;52.186;5.688;2022-11-15T05:34:40;10.70;99.90
16417;DHT22;8317;52.186;5.688;2022-11-15T05:37:07;10.70;99.90
16417;DHT22;8317;52.186;5.688;2022-11-15T05:39:34;10.60;99.90
16417;DHT22;8317;52.186;5.688;2022-11-15T05:42:05;10.60;99.90
16417;DHT22;8317;52.186;5.688;2022-11-15T05:44:34;10.50;99.90
16417;DHT22;8317;52.186;5.688;2022-11-15T05:47:03;10.60;99.90
16417;DHT22;8317;52.186;5.688;2022-11-15T05:49:32;10.60;99.90
16417;DHT22;8317;52.186;5.688;2022-11-15T05:52:03;10.70;99.90
16417;DHT22;8317;52.186;5.688;2022-11-15T05:54:31;10.60;99.90
16417;DHT22;8317;52.186;5.688;2022-11-15T05:56:58;10.70;99.90
16417;DHT22;8317;52.186;5.688;2022-11-15T05:59:28;10.80;99.90
16417;DHT22;8317;52.186;5.688;2022-11-15T06:01:56;10.80;99.90
16417;DHT22;8317;52.186;5.688;2022-11-15T06:04:23;10.80;99.90
16417;DHT22;8317;52.186;5.688;2022-11-15T06:06:50;10.80;99.90
16417;DHT22;8317;52.186;5.688;2022-11-15T06:09:16;10.80;99.90
16417;DHT22;8317;52.186;5.688;2022-11-15T06:11:43;10.80;99.90
16417;DHT22;8317;52.186;5.688;2022-11-15T06:14:11;10.80;99.90
16417;DHT22;8317;52.186;5.688;2022-11-15T06:16:39;10.90;99.90
16417;DHT22;8317;52.186;5.688;2022-11-15T06:19:06;10.90;99.90
16417;DHT22;8317;52.186;5.688;2022-11-15T06:21:33;10.90;99.90
16417;DHT22;8317;52.186;5.688;2022-11-15T06:24:00;11.00;99.90
16417;DHT22;8317;52.186;5.688;2022-11-15T06:26:27;11.00;99.90
16417;DHT22;8317;52.186;5.688;2022-11-15T06:28:54;11.10;99.90
16417;DHT22;8317;52.186;5.688;2022-11-15T06:31:20;11.10;99.90
16417;DHT22;8317;52.186;5.688;2022-11-15T06:33:49;11.10;99.90
16417;DHT22;8317;52.186;5.688;2022-11-15T06:36:16;11.10;99.90
16417;DHT22;8317;52.186;5.688;2022-11-15T06:38:43;11.10;99.90
16417;DHT22;8317;52.186;5.688;2022-11-15T06:41:11;11.20;99.90
16417;DHT22;8317;52.186;5.688;2022-11-15T06:43:38;11.00;99.90
16417;DHT22;8317;52.186;5.688;2022-11-15T06:46:06;11.20;99.90
16417;DHT22;8317;52.186;5.688;2022-11-15T06:48:34;11.30;99.90
16417;DHT22;8317;52.186;5.688;2022-11-15T06:51:03;11.30;99.90
16417;DHT22;8317;52.186;5.688;2022-11-15T06:53:31;11.30;99.90
16417;DHT22;8317;52.186;5.688;2022-11-15T06:55:59;11.30;99.90
16417;DHT22;8317;52.186;5.688;2022-11-15T06:58:26;11.20;99.90
16417;DHT22;8317;52.186;5.688;2022-11-15T07:00:53;11.20;99.90
16417;DHT22;8317;52.186;5.688;2022-11-15T07:03:20;11.20;99.90
16417;DHT22;8317;52.186;5.688;2022-11-15T07:05:51;11.20;99.90
16417;DHT22;8317;52.186;5.688;2022-11-15T07:08:21;11.20;99.90
16417;DHT22;8317;52.186;5.688;2022-11-15T07:10:48;11.30;99.90
16417;DHT22;8317;52.186;5.688;2022-11-15T07:13:15;11.30;99.90
16417;DHT22;8317;52.186;5.688;2022-11-15T07:15:42;11.30;99.90
16417;DHT22;8317;52.186;5.688;2022-11-15T07:18:09;11.30;99.90
16417;DHT22;8317;52.186;5.688;2022-11-15T07:20:35;11.40;99.90
16417;DHT22;8317;52.186;5.688;2022-11-15T07:23:03;11.30;99.90
16417;DHT22;8317;52.186;5.688;2022-11-15T07:25:32;11.30;99.90
16417;DHT22;8317;52.186;5.688;2022-11-15T07:27:59;11.40;99.90
16417;DHT22;8317;52.186;5.688;2022-11-15T07:30:27;11.50;99.90
16417;DHT22;8317;52.186;5.688;2022-11-15T07:32:54;11.50;99.90
16417;DHT22;8317;52.186;5.688;2022-11-15T07:35:21;11.40;99.90
16417;DHT22;8317;52.186;5.688;2022-11-15T07:37:54;11.40;99.90
16417;DHT22;8317;52.186;5.688;2022-11-15T07:40:21;11.50;99.90
16417;DHT22;8317;52.186;5.688;2022-11-15T07:42:50;11.40;99.90
16417;DHT22;8317;52.186;5.688;2022-11-15T07:45:19;11.50;99.90
16417;DHT22;8317;52.186;5.688;2022-11-15T07:47:46;11.50;99.90
16417;DHT22;8317;52.186;5.688;2022-11-15T07:50:13;11.50;99.90
16417;DHT22;8317;52.186;5.688;2022-11-15T07:52:40;11.40;99.90
16417;DHT22;8317;52.186;5.688;2022-11-15T07:55:08;11.40;99.90
16417;DHT22;8317;52.186;5.688;2022-11-15T07:57:35;11.40;99.90
16417;DHT22;8317;52.186;5.688;2022-11-15T08:00:04;11.40;99.90
16417;DHT22;8317;52.186;5.688;2022-11-15T08:02:31;11.50;99.90
16417;DHT22;8317;52.186;5.688;2022-11-15T08:04:58;11.50;99.90
16417;DHT22;8317;52.186;5.688;2022-11-15T08:07:28;11.50;99.90
16417;DHT22;8317;52.186;5.688;2022-11-15T08:09:55;11.50;99.90
16417;DHT22;8317;52.186;5.688;2022-11-15T08:12:22;11.50;99.90
16417;DHT22;8317;52.186;5.688;2022-11-15T08:14:49;11.40;99.90
16417;DHT22;8317;52.186;5.688;2022-11-15T08:17:17;11.40;99.90
16417;DHT22;8317;52.186;5.688;2022-11-15T08:19:44;11.50;99.90
16417;DHT22;8317;52.186;5.688;2022-11-15T08:22:11;11.50;99.90
16417;DHT22;8317;52.186;5.688;2022-11-15T08:24:38;11.50;99.90
16417;DHT22;8317;52.186;5.688;2022-11-15T08:27:05;11.50;99.90
16417;DHT22;8317;52.186;5.688;2022-11-15T08:29:40;11.50;99.90
16417;DHT22;8317;52.186;5.688;2022-11-15T08:32:08;11.60;99.90
16417;DHT22;8317;52.186;5.688;2022-11-15T08:34:36;11.60;99.90
16417;DHT22;8317;52.186;5.688;2022-11-15T08:37:04;11.60;99.90
16417;DHT22;8317;52.186;5.688;2022-11-15T08:39:31;11.60;99.90
16417;DHT22;8317;52.186;5.688;2022-11-15T08:41:58;11.70;99.90
16417;DHT22;8317;52.186;5.688;2022-11-15T08:44:25;11.70;99.90
16417;DHT22;8317;52.186;5.688;2022-11-15T08:46:52;11.70;99.90
16417;DHT22;8317;52.186;5.688;2022-11-15T08:49:19;11.60;99.90
16417;DHT22;8317;52.186;5.688;2022-11-15T08:51:47;11.50;99.90
16417;DHT22;8317;52.186;5.688;2022-11-15T08:54:14;11.70;99.90
16417;DHT22;8317;52.186;5.688;2022-11-15T08:56:41;11.70;99.90
16417;DHT22;8317;52.186;5.688;2022-11-15T08:59:08;11.70;99.90
16417;DHT22;8317;52.186;5.688;2022-11-15T09:01:35;11.70;99.90
16417;DHT22;8317;52.186;5.688;2022-11-15T09:04:02;11.70;99.90
16417;DHT22;8317;52.186;5.688;2022-11-15T09:06:29;11.60;99.90
16417;DHT22;8317;52.186;5.688;2022-11-15T09:08:58;11.60;99.90
16417;DHT22;8317;52.186;5.688;2022-11-15T09:11:26;11.60;99.90
16417;DHT22;8317;52.186;5.688;2022-11-15T09:13:53;11.60;99.90
16417;DHT22;8317;52.186;5.688;2022-11-15T09:16:20;11.60;99.90
16417;DHT22;8317;52.186;5.688;2022-11-15T09:18:47;11.60;99.90
16417;DHT22;8317;52.186;5.688;2022-11-15T09:21:14;11.70;99.90
16417;DHT22;8317;52.186;5.688;2022-11-15T09:23:41;11.70;99.90
16417;DHT22;8317;52.186;5.688;2022-11-15T09:26:09;11.80;99.90
16417;DHT22;8317;52.186;5.688;2022-11-15T09:28:37;11.90;99.90
16417;DHT22;8317;52.186;5.688;2022-11-15T09:31:07;12.20;99.90
16417;DHT22;8317;52.186;5.688;2022-11-15T09:33:34;12.60;99.90
16417;DHT22;8317;52.186;5.688;2022-11-15T09:36:02;12.60;99.90
16417;DHT22;8317;52.186;5.688;2022-11-15T09:38:29;12.90;99.90
16417;DHT22;8317;52.186;5.688;2022-11-15T09:41:20;12.90;99.90
16417;DHT22;8317;52.186;5.688;2022-11-15T09:43:57;12.80;99.90
16417;DHT22;8317;52.186;5.688;2022-11-15T09:46:35;12.40;99.90
16417;DHT22;8317;52.186;5.688;2022-11-15T09:49:03;12.40;99.90
16417;DHT22;8317;52.186;5.688;2022-11-15T09:51:32;12.30;99.90
16417;DHT22;8317;52.186;5.688;2022-11-15T09:54:05;12.50;99.90
16417;DHT22;8317;52.186;5.688;2022-11-15T09:56:36;12.60;99.90
16417;DHT22;8317;52.186;5.688;2022-11-15T09:59:17;12.40;99.90
16417;DHT22;8317;52.186;5.688;2022-11-15T10:01:52;12.40;99.90
16417;DHT22;8317;52.186;5.688;2022-11-15T10:04:21;12.30;99.90
16417;DHT22;8317;52.186;5.688;2022-11-15T10:06:53;12.30;99.90
16417;DHT22;8317;52.186;5.688;2022-11-15T10:09:24;12.50;99.90
16417;DHT22;8317;52.186;5.688;2022-11-15T10:11:54;12.80;99.90
16417;DHT22;8317;52.186;5.688;2022-11-15T10:14:23;12.90;99.90
16417;DHT22;8317;52.186;5.688;2022-11-15T10:17:09;13.20;99.90
16417;DHT22;8317;52.186;5.688;2022-11-15T10:19:52;13.30;99.90
16417;DHT22;8317;52.186;5.688;2022-11-15T10:22:28;13.50;99.90
16417;DHT22;8317;52.186;5.688;2022-11-15T10:25:17;13.80;99.90
16417;DHT22;8317;52.186;5.688;2022-11-15T10:27:52;13.60;99.90
16417;DHT22;8317;52.186;5.688;2022-11-15T10:30:20;13.20;99.90
16417;DHT22;8317;52.186;5.688;2022-11-15T10:32:47;13.50;99.90
16417;DHT22;8317;52.186;5.688;2022-11-15T10:35:25;13.60;99.90
16417;DHT22;8317;52.186;5.688;2022-11-15T10:38:04;13.60;99.90
16417;DHT22;8317;52.186;5.688;2022-11-15T10:40:32;13.30;99.90
16417;DHT22;8317;52.186;5.688;2022-11-15T10:43:12;13.10;99.90
16417;DHT22;8317;52.186;5.688;2022-11-15T10:45:39;13.00;99.90
16417;DHT22;8317;52.186;5.688;2022-11-15T10:48:22;12.90;99.90
16417;DHT22;8317;52.186;5.688;2022-11-15T10:50:50;12.70;99.90
16417;DHT22;8317;52.186;5.688;2022-11-15T10:53:23;12.70;99.90
16417;DHT22;8317;52.186;5.688;2022-11-15T10:55:52;13.00;99.90
16417;DHT22;8317;52.186;5.688;2022-11-15T10:58:27;13.10;99.90
16417;DHT22;8317;52.186;5.688;2022-11-15T11:01:13;13.10;99.90
16417;DHT22;8317;52.186;5.688;2022-11-15T11:03:41;13.10;99.90
16417;DHT22;8317;52.186;5.688;2022-11-15T11:06:11;13.40;99.90
16417;DHT22;8317;52.186;5.688;2022-11-15T11:08:39;13.30;99.90
16417;DHT22;8317;52.186;5.688;2022-11-15T11:11:06;13.40;99.90
16417;DHT22;8317;52.186;5.688;2022-11-15T11:13:36;13.40;99.90
16417;DHT22;8317;52.186;5.688;2022-11-15T11:16:20;13.30;99.90
16417;DHT22;8317;52.186;5.688;2022-11-15T11:18:54;13.40;99.90
16417;DHT22;8317;52.186;5.688;2022-11-15T11:21:29;13.40;99.90
16417;DHT22;8317;52.186;5.688;2022-11-15T11:24:02;13.50;99.90
16417;DHT22;8317;52.186;5.688;2022-11-15T11:26:42;13.80;99.90
16417;DHT22;8317;52.186;5.688;2022-11-15T11:29:26;13.80;99.90
16417;DHT22;8317;52.186;5.688;2022-11-15T11:32:02;13.90;99.90
16417;DHT22;8317;52.186;5.688;2022-11-15T11:34:42;14.30;99.90
16417;DHT22;8317;52.186;5.688;2022-11-15T11:37:20;14.10;99.90
16417;DHT22;8317;52.186;5.688;2022-11-15T11:39:56;14.00;99.90
16417;DHT22;8317;52.186;5.688;2022-11-15T11:42:33;14.50;99.90
16417;DHT22;8317;52.186;5.688;2022-11-15T11:45:18;14.40;99.90
16417;DHT22;8317;52.186;5.688;2022-11-15T11:47:47;14.70;99.90
16417;DHT22;8317;52.186;5.688;2022-11-15T11:50:20;14.30;99.90
16417;DHT22;8317;52.186;5.688;2022-11-15T11:52:56;14.00;99.90
16417;DHT22;8317;52.186;5.688;2022-11-15T11:55:28;13.90;99.90
16417;DHT22;8317;52.186;5.688;2022-11-15T11:58:04;13.90;99.90
16417;DHT22;8317;52.186;5.688;2022-11-15T12:00:37;14.00;99.90
16417;DHT22;8317;52.186;5.688;2022-11-15T12:03:09;13.90;99.90
16417;DHT22;8317;52.186;5.688;2022-11-15T12:05:40;13.80;99.90
16417;DHT22;8317;52.186;5.688;2022-11-15T12:08:29;13.80;99.90
16417;DHT22;8317;52.186;5.688;2022-11-15T12:11:03;13.60;99.90
16417;DHT22;8317;52.186;5.688;2022-11-15T12:13:34;13.60;99.90
16417;DHT22;8317;52.186;5.688;2022-11-15T12:16:12;13.90;99.90
16417;DHT22;8317;52.186;5.688;2022-11-15T12:18:46;13.80;99.90
16417;DHT22;8317;52.186;5.688;2022-11-15T12:21:18;13.60;99.90
16417;DHT22;8317;52.186;5.688;2022-11-15T12:23:51;13.70;99.90
16417;DHT22;8317;52.186;5.688;2022-11-15T12:26:21;13.70;99.90
16417;DHT22;8317;52.186;5.688;2022-11-15T12:28:53;13.80;99.90
16417;DHT22;8317;52.186;5.688;2022-11-15T12:31:26;13.50;99.90
16417;DHT22;8317;52.186;5.688;2022-11-15T12:33:57;13.50;99.90
16417;DHT22;8317;52.186;5.688;2022-11-15T12:36:37;13.40;99.90
16417;DHT22;8317;52.186;5.688;2022-11-15T12:39:05;13.30;99.90
16417;DHT22;8317;52.186;5.688;2022-11-15T12:41:34;13.30;99.90
16417;DHT22;8317;52.186;5.688;2022-11-15T12:44:01;13.20;99.90
16417;DHT22;8317;52.186;5.688;2022-11-15T12:47:03;13.10;99.90
16417;DHT22;8317;52.186;5.688;2022-11-15T12:49:44;13.20;99.90
16417;DHT22;8317;52.186;5.688;2022-11-15T12:52:11;13.00;99.90
16417;DHT22;8317;52.186;5.688;2022-11-15T12:57:52;13.10;99.90
16417;DHT22;8317;52.186;5.688;2022-11-15T13:00:42;13.30;99.90
16417;DHT22;8317;52.186;5.688;2022-11-15T13:03:19;13.20;99.90
16417;DHT22;8317;52.186;5.688;2022-11-15T13:06:08;13.40;99.90
16417;DHT22;8317;52.186;5.688;2022-11-15T13:08:40;13.60;99.90
16417;DHT22;8317;52.186;5.688;2022-11-15T13:14:44;13.50;99.90
16417;DHT22;8317;52.186;5.688;2022-11-15T13:17:32;13.80;99.90
16417;DHT22;8317;52.186;5.688;2022-11-15T13:20:17;13.60;99.90
16417;DHT22;8317;52.186;5.688;2022-11-15T13:22:46;13.50;99.90
16417;DHT22;8317;52.186;5.688;2022-11-15T13:25:46;13.60;99.90
16417;DHT22;8317;52.186;5.688;2022-11-15T13:28:21;13.40;99.90
16417;DHT22;8317;52.186;5.688;2022-11-15T13:30:51;13.30;99.90
16417;DHT22;8317;52.186;5.688;2022-11-15T13:33:20;13.20;99.90
16417;DHT22;8317;52.186;5.688;2022-11-15T13:35:52;13.20;99.90
16417;DHT22;8317;52.186;5.688;2022-11-15T13:38:26;13.30;99.90
16417;DHT22;8317;52.186;5.688;2022-11-15T13:40:54;13.20;99.90
16417;DHT22;8317;52.186;5.688;2022-11-15T13:43:31;13.20;99.90
16417;DHT22;8317;52.186;5.688;2022-11-15T13:46:05;13.10;99.90
16417;DHT22;8317;52.186;5.688;2022-11-15T13:48:33;13.10;99.90
16417;DHT22;8317;52.186;5.688;2022-11-15T13:51:02;13.10;99.90
16417;DHT22;8317;52.186;5.688;2022-11-15T13:53:31;13.10;99.90
16417;DHT22;8317;52.186;5.688;2022-11-15T13:55:59;13.10;99.90
16417;DHT22;8317;52.186;5.688;2022-11-15T13:58:26;13.00;99.90
16417;DHT22;8317;52.186;5.688;2022-11-15T14:00:59;12.90;99.90
16417;DHT22;8317;52.186;5.688;2022-11-15T14:03:29;12.80;99.90
16417;DHT22;8317;52.186;5.688;2022-11-15T14:06:05;12.70;99.90
16417;DHT22;8317;52.186;5.688;2022-11-15T14:08:33;12.70;99.90
16417;DHT22;8317;52.186;5.688;2022-11-15T14:11:09;12.70;99.90
16417;DHT22;8317;52.186;5.688;2022-11-15T14:13:38;12.70;99.90
16417;DHT22;8317;52.186;5.688;2022-11-15T14:16:19;12.70;99.90
16417;DHT22;8317;52.186;5.688;2022-11-15T14:18:48;12.60;99.90
16417;DHT22;8317;52.186;5.688;2022-11-15T14:21:18;12.60;99.90
16417;DHT22;8317;52.186;5.688;2022-11-15T14:23:46;12.50;99.90
16417;DHT22;8317;52.186;5.688;2022-11-15T14:26:29;12.60;99.90
16417;DHT22;8317;52.186;5.688;2022-11-15T14:28:56;12.50;99.90
16417;DHT22;8317;52.186;5.688;2022-11-15T14:31:23;12.50;99.90
16417;DHT22;8317;52.186;5.688;2022-11-15T14:33:50;12.50;99.90
16417;DHT22;8317;52.186;5.688;2022-11-15T14:36:19;12.40;99.90
16417;DHT22;8317;52.186;5.688;2022-11-15T14:38:47;12.40;99.90
16417;DHT22;8317;52.186;5.688;2022-11-15T14:41:18;12.40;99.90
16417;DHT22;8317;52.186;5.688;2022-11-15T14:43:46;12.40;99.90
16417;DHT22;8317;52.186;5.688;2022-11-15T14:46:13;12.40;99.90
16417;DHT22;8317;52.186;5.688;2022-11-15T14:48:40;12.40;99.90
16417;DHT22;8317;52.186;5.688;2022-11-15T14:51:12;12.30;99.90
16417;DHT22;8317;52.186;5.688;2022-11-15T14:53:42;12.30;99.90
16417;DHT22;8317;52.186;5.688;2022-11-15T14:56:09;12.40;99.90
16417;DHT22;8317;52.186;5.688;2022-11-15T14:58:36;12.30;99.90
16417;DHT22;8317;52.186;5.688;2022-11-15T15:01:12;12.30;99.90
16417;DHT22;8317;52.186;5.688;2022-11-15T15:03:39;12.30;99.90
16417;DHT22;8317;52.186;5.688;2022-11-15T15:06:06;12.30;99.90
16417;DHT22;8317;52.186;5.688;2022-11-15T15:08:34;12.30;99.90
16417;DHT22;8317;52.186;5.688;2022-11-15T15:11:07;12.30;99.90
16417;DHT22;8317;52.186;5.688;2022-11-15T15:13:35;12.30;99.90
16417;DHT22;8317;52.186;5.688;2022-11-15T15:16:02;12.30;99.90
16417;DHT22;8317;52.186;5.688;2022-11-15T15:18:29;12.30;99.90
16417;DHT22;8317;52.186;5.688;2022-11-15T15:20:57;12.30;99.90
16417;DHT22;8317;52.186;5.688;2022-11-15T15:23:28;12.30;99.90
16417;DHT22;8317;52.186;5.688;2022-11-15T15:25:56;12.30;99.90
16417;DHT22;8317;52.186;5.688;2022-11-15T15:28:25;12.30;99.90
16417;DHT22;8317;52.186;5.688;2022-11-15T15:30:52;12.40;99.90
16417;DHT22;8317;52.186;5.688;2022-11-15T15:33:19;12.40;99.90
16417;DHT22;8317;52.186;5.688;2022-11-15T15:35:46;12.40;99.90
16417;DHT22;8317;52.186;5.688;2022-11-15T15:38:13;12.40;99.90
16417;DHT22;8317;52.186;5.688;2022-11-15T15:40:40;12.30;99.90
16417;DHT22;8317;52.186;5.688;2022-11-15T15:43:07;12.40;99.90
16417;DHT22;8317;52.186;5.688;2022-11-15T15:45:37;12.40;99.90
16417;DHT22;8317;52.186;5.688;2022-11-15T15:48:04;12.40;99.90
16417;DHT22;8317;52.186;5.688;2022-11-15T15:50:33;12.40;99.90
16417;DHT22;8317;52.186;5.688;2022-11-15T15:53:01;12.40;99.90
16417;DHT22;8317;52.186;5.688;2022-11-15T15:55:29;12.40;99.90
16417;DHT22;8317;52.186;5.688;2022-11-15T15:57:56;12.40;99.90
16417;DHT22;8317;52.186;5.688;2022-11-15T16:00:24;12.40;99.90
16417;DHT22;8317;52.186;5.688;2022-11-15T16:02:53;12.40;99.90
16417;DHT22;8317;52.186;5.688;2022-11-15T16:05:20;12.40;99.90
16417;DHT22;8317;52.186;5.688;2022-11-15T16:07:47;12.50;99.90
16417;DHT22;8317;52.186;5.688;2022-11-15T16:10:18;12.50;99.90
16417;DHT22;8317;52.186;5.688;2022-11-15T16:12:46;12.50;99.90
16417;DHT22;8317;52.186;5.688;2022-11-15T16:15:13;12.50;99.90
16417;DHT22;8317;52.186;5.688;2022-11-15T16:17:43;12.50;99.90
16417;DHT22;8317;52.186;5.688;2022-11-15T16:20:29;12.50;99.90